Pinot Noir Commodore — WCZ7643 — position and weather

sailwx.info

Track history (hours):
 
Tides and Currents Weather Stations Pressure Air Temp Water Temp Dewpoint Dewpoint Depression Visibility Wind Speed Wind Dir Waves Ship Positions

Pinot Noir Commodore

Owner: PROESCHER, WARD H, Alameda, CA. More information available from US FCC via Universal Licensing System and Coast Guard Vessel Documentation Center.

Last reported at 2018-Jan-22 05:48 UTC. Time now 2018-Jan-22 13:49 UTC.
Position N 37°47' W 122°17'.

Length 25 m; draft 1 m.

Type: Passenger vessel. MMSI: 367437910.

Date/timePositionNaut miles runAvg speedWind from/ knotsBaromVisibWave heightAir tempDewpointWater temp
2018-Jan-22 05:48N 37°47' W 122°17'1 3.4
2018-Jan-22 05:30N 37°48' W 122°18'4 8.2
2018-Jan-22 05:00N 37°47' W 122°23'2 3.5
2018-Jan-22 04:30N 37°48' W 122°22'2 4.7
2018-Jan-22 04:00N 37°50' W 122°24'3 5.9
2018-Jan-22 03:30N 37°49' W 122°27'2 3.9
2018-Jan-22 03:00N 37°49' W 122°25'3 6.6
2018-Jan-22 02:30N 37°48' W 122°21'4 7.1
2018-Jan-22 02:00N 37°48' W 122°17'0 0.0
2018-Jan-22 01:30N 37°47' W 122°17'0 0.0
2018-Jan-22 01:00N 37°47' W 122°17'0 0.0
2018-Jan-21 18:49N 37°47' W 122°17'0 0.0
2018-Jan-21 18:30N 37°47' W 122°17'0 0.0
2018-Jan-21 06:00N 37°47' W 122°17'1 1.2
2018-Jan-21 05:31N 37°48' W 122°17'3 6.5
2018-Jan-21 05:00N 37°48' W 122°22'2 4.5
2018-Jan-21 04:31N 37°49' W 122°24'2 4.3
2018-Jan-21 04:00N 37°47' W 122°23'4 7.2
2018-Jan-21 03:30N 37°48' W 122°18'1 2.6
2018-Jan-21 03:00N 37°47' W 122°17'0 0.0
2018-Jan-21 02:30N 37°47' W 122°17'0 0.0
2018-Jan-21 02:00N 37°47' W 122°17'0 0.0
2018-Jan-20 20:09N 37°47' W 122°17'0 0.0
2018-Jan-20 20:00N 37°47' W 122°17'0 0.0
2018-Jan-20 19:30N 37°47' W 122°17'0 0.0
2018-Jan-20 19:00N 37°47' W 122°17'0 0.0
2018-Jan-20 18:30N 37°47' W 122°17'0 0.0
2018-Jan-20 18:00N 37°47' W 122°17'0 0.0
2018-Jan-20 17:30N 37°47' W 122°17'0 0.0
2018-Jan-18 20:28N 37°47' W 122°17'  
Track history (hours):
 
Tides and Currents Weather Stations Pressure Air Temp Water Temp Dewpoint Dewpoint Depression Visibility Wind Speed Wind Dir Waves Ship Positions

Pinot Noir Commodore

Owner: PROESCHER, WARD H, Alameda, CA. More information available from US FCC via Universal Licensing System and Coast Guard Vessel Documentation Center.

Last reported at 2018-Jan-22 05:48 UTC. Time now 2018-Jan-22 13:49 UTC.
Position N 37°47' W 122°17'.

Length 25 m; draft 1 m.

Type: Passenger vessel. MMSI: 367437910.

Date/timePositionNaut miles runAvg speedWind from/ knotsBaromVisibWave heightAir tempDewpointWater temp
2018-Jan-22 05:48N 37°47' W 122°17'1 3.4
2018-Jan-22 05:30N 37°48' W 122°18'4 8.2
2018-Jan-22 05:00N 37°47' W 122°23'2 3.5
2018-Jan-22 04:30N 37°48' W 122°22'2 4.7
2018-Jan-22 04:00N 37°50' W 122°24'3 5.9
2018-Jan-22 03:30N 37°49' W 122°27'2 3.9
2018-Jan-22 03:00N 37°49' W 122°25'3 6.6
2018-Jan-22 02:30N 37°48' W 122°21'4 7.1
2018-Jan-22 02:00N 37°48' W 122°17'0 0.0
2018-Jan-22 01:30N 37°47' W 122°17'0 0.0
2018-Jan-22 01:00N 37°47' W 122°17'0 0.0
2018-Jan-21 18:49N 37°47' W 122°17'0 0.0
2018-Jan-21 18:30N 37°47' W 122°17'0 0.0
2018-Jan-21 06:00N 37°47' W 122°17'1 1.2
2018-Jan-21 05:31N 37°48' W 122°17'3 6.5
2018-Jan-21 05:00N 37°48' W 122°22'2 4.5
2018-Jan-21 04:31N 37°49' W 122°24'2 4.3
2018-Jan-21 04:00N 37°47' W 122°23'4 7.2
2018-Jan-21 03:30N 37°48' W 122°18'1 2.6
2018-Jan-21 03:00N 37°47' W 122°17'0 0.0
2018-Jan-21 02:30N 37°47' W 122°17'0 0.0
2018-Jan-21 02:00N 37°47' W 122°17'0 0.0
2018-Jan-20 20:09N 37°47' W 122°17'0 0.0
2018-Jan-20 20:00N 37°47' W 122°17'0 0.0
2018-Jan-20 19:30N 37°47' W 122°17'0 0.0
2018-Jan-20 19:00N 37°47' W 122°17'0 0.0
2018-Jan-20 18:30N 37°47' W 122°17'0 0.0
2018-Jan-20 18:00N 37°47' W 122°17'0 0.0
2018-Jan-20 17:30N 37°47' W 122°17'0 0.0
2018-Jan-18 20:28N 37°47' W 122°17'  

Dump ship's entire track history